createdAt,value
2017-07-30T00:01:33.416Z,74.30
2017-07-30T00:04:02.096Z,74.20
2017-07-30T00:06:30.591Z,74.20
2017-07-30T00:08:58.848Z,74.30
2017-07-30T00:11:27.142Z,74.40
2017-07-30T00:13:55.402Z,74.50
2017-07-30T00:16:24.624Z,74.60
2017-07-30T00:18:52.874Z,74.80
2017-07-30T00:21:21.164Z,74.70
2017-07-30T00:23:49.427Z,74.80
2017-07-30T00:26:18.623Z,74.90
2017-07-30T00:28:46.888Z,74.60
2017-07-30T00:31:15.175Z,74.90
2017-07-30T00:33:43.463Z,75.10
2017-07-30T00:36:11.724Z,75.10
2017-07-30T00:38:40.012Z,75.40
2017-07-30T00:41:08.287Z,75.40
2017-07-30T00:43:36.891Z,75.70
2017-07-30T00:46:05.342Z,76.00
2017-07-30T00:48:33.653Z,76.20
2017-07-30T00:51:02.731Z,76.10
2017-07-30T00:53:30.971Z,76.10
2017-07-30T00:55:59.255Z,75.80
2017-07-30T00:58:27.541Z,76.10
2017-07-30T01:00:55.815Z,76.30
2017-07-30T01:03:24.113Z,76.20
2017-07-30T01:05:52.484Z,76.10
2017-07-30T01:08:20.851Z,75.80
2017-07-30T01:10:49.223Z,75.70
2017-07-30T01:13:17.515Z,75.50
2017-07-30T01:15:45.762Z,75.30
2017-07-30T01:18:14.075Z,75.00
2017-07-30T01:20:42.356Z,75.10
2017-07-30T01:23:11.416Z,75.20
2017-07-30T01:25:39.700Z,75.20
2017-07-30T01:28:08.089Z,75.30
2017-07-30T01:30:37.332Z,75.30
2017-07-30T01:33:05.620Z,75.40
2017-07-30T01:35:33.975Z,75.50
2017-07-30T01:38:02.302Z,75.90
2017-07-30T01:40:30.557Z,76.20
2017-07-30T01:42:58.847Z,76.50
2017-07-30T01:45:27.135Z,76.90
2017-07-30T01:47:55.493Z,77.00
2017-07-30T01:50:24.659Z,77.20
2017-07-30T01:52:52.937Z,77.20
2017-07-30T01:55:22.164Z,77.20
2017-07-30T01:57:51.384Z,77.10
2017-07-30T02:00:19.648Z,77.10
2017-07-30T02:02:48.023Z,77.10
2017-07-30T02:05:16.910Z,77.10
2017-07-30T02:07:45.209Z,76.90
2017-07-30T02:10:13.459Z,77.10
2017-07-30T02:12:41.753Z,77.10
2017-07-30T02:15:10.039Z,77.00
2017-07-30T02:17:38.331Z,77.00
2017-07-30T02:20:07.351Z,76.90
2017-07-30T02:22:35.647Z,76.90
2017-07-30T02:25:03.904Z,76.60
2017-07-30T02:27:32.212Z,76.50
2017-07-30T02:30:00.503Z,76.40
2017-07-30T02:32:28.899Z,76.40
2017-07-30T02:34:57.919Z,76.40
2017-07-30T02:37:26.238Z,75.60
2017-07-30T02:39:54.495Z,75.30
2017-07-30T02:42:22.778Z,75.20
2017-07-30T02:44:51.039Z,75.20
2017-07-30T02:47:19.314Z,75.10
2017-07-30T02:49:47.579Z,75.20
2017-07-30T02:52:15.900Z,75.40
2017-07-30T02:54:44.143Z,75.10
2017-07-30T02:57:12.431Z,75.10
2017-07-30T02:59:40.682Z,75.00
2017-07-30T03:02:08.971Z,75.10
2017-07-30T03:04:37.224Z,75.50
2017-07-30T03:07:05.519Z,75.50
2017-07-30T03:09:33.770Z,75.30
2017-07-30T03:12:02.060Z,75.10
2017-07-30T03:14:30.316Z,74.80
2017-07-30T03:16:58.651Z,74.50
2017-07-30T03:19:27.030Z,74.20
2017-07-30T03:21:55.305Z,74.10
2017-07-30T03:24:23.563Z,74.00
2017-07-30T03:26:52.332Z,74.20
2017-07-30T03:29:20.622Z,74.10
2017-07-30T03:31:48.918Z,74.30
2017-07-30T03:34:17.203Z,74.20
2017-07-30T03:36:45.674Z,74.20
2017-07-30T03:39:13.948Z,74.40
2017-07-30T03:41:42.207Z,74.30
2017-07-30T03:44:10.492Z,74.40
2017-07-30T03:46:39.629Z,74.40
2017-07-30T03:49:08.671Z,74.10
2017-07-30T03:51:36.919Z,74.10
2017-07-30T03:54:05.206Z,74.00
2017-07-30T03:59:08.199Z,73.80
2017-07-30T04:01:36.503Z,73.50
2017-07-30T04:04:04.796Z,73.30
2017-07-30T04:06:33.961Z,73.10
2017-07-30T04:09:02.268Z,73.00
2017-07-30T04:11:30.537Z,72.80
2017-07-30T04:13:58.824Z,72.80
2017-07-30T04:16:27.075Z,72.80
2017-07-30T04:18:55.356Z,72.90
2017-07-30T04:21:23.604Z,72.80
2017-07-30T04:23:51.902Z,72.90
2017-07-30T04:26:20.180Z,72.80
2017-07-30T04:28:48.490Z,72.80
2017-07-30T04:31:17.512Z,72.40
2017-07-30T04:33:45.787Z,72.60
2017-07-30T04:36:14.079Z,72.70
2017-07-30T04:38:42.363Z,72.50
2017-07-30T04:41:10.611Z,72.40
2017-07-30T04:43:38.918Z,72.30
2017-07-30T04:46:07.172Z,72.00
2017-07-30T04:48:35.488Z,71.50
2017-07-30T04:51:03.856Z,71.00
2017-07-30T04:53:32.098Z,70.50
2017-07-30T04:56:00.403Z,70.50
2017-07-30T04:58:28.655Z,70.80
2017-07-30T05:00:56.911Z,70.90
2017-07-30T05:03:25.232Z,71.00
2017-07-30T05:05:53.521Z,71.10
2017-07-30T05:08:21.768Z,71.20
2017-07-30T05:10:50.168Z,71.40
2017-07-30T05:13:18.403Z,71.10
2017-07-30T05:15:47.340Z,71.00
2017-07-30T05:18:15.590Z,70.90
2017-07-30T05:20:43.850Z,70.50
2017-07-30T05:23:12.139Z,67.40
2017-07-30T05:25:40.449Z,64.20
2017-07-30T05:28:09.735Z,62.50
2017-07-30T05:30:38.020Z,61.00
2017-07-30T05:33:06.326Z,59.30
2017-07-30T05:35:35.344Z,58.60
2017-07-30T05:38:03.599Z,58.60
2017-07-30T05:40:31.888Z,59.10
2017-07-30T05:43:00.172Z,59.30
2017-07-30T05:45:28.472Z,59.20
2017-07-30T05:47:56.762Z,58.30
2017-07-30T05:50:25.016Z,57.50
2017-07-30T05:52:53.624Z,57.00
2017-07-30T05:55:21.899Z,57.10
2017-07-30T05:57:50.266Z,56.80
2017-07-30T06:00:18.540Z,56.50
2017-07-30T06:02:47.130Z,56.60
2017-07-30T06:05:15.420Z,56.40
2017-07-30T06:07:44.471Z,55.60
2017-07-30T06:10:12.733Z,55.50
2017-07-30T06:12:41.014Z,54.90
2017-07-30T06:15:09.263Z,53.70
2017-07-30T06:17:37.544Z,52.40
2017-07-30T06:20:05.840Z,51.80
2017-07-30T06:22:34.132Z,50.40
2017-07-30T06:25:02.387Z,50.50
2017-07-30T06:27:30.675Z,50.30
2017-07-30T06:29:58.935Z,50.40
2017-07-30T06:32:27.215Z,50.40
2017-07-30T06:34:55.474Z,49.50
2017-07-30T06:37:23.763Z,48.30
2017-07-30T06:39:52.020Z,47.20
2017-07-30T06:42:20.303Z,47.00
2017-07-30T06:44:48.570Z,46.60
2017-07-30T06:47:16.902Z,46.00
2017-07-30T06:49:45.278Z,45.90
2017-07-30T06:52:13.563Z,44.70
2017-07-30T06:54:41.852Z,44.10
2017-07-30T06:57:10.907Z,44.30
2017-07-30T06:59:39.200Z,44.20
2017-07-30T07:02:07.454Z,44.40
2017-07-30T07:04:35.748Z,45.10
2017-07-30T07:07:04.048Z,44.80
2017-07-30T07:09:33.072Z,41.80
2017-07-30T07:12:01.332Z,41.60
2017-07-30T07:14:29.612Z,40.90
2017-07-30T07:16:57.920Z,39.40
2017-07-30T07:19:26.179Z,39.40
2017-07-30T07:21:54.438Z,40.50
2017-07-30T07:24:23.495Z,40.30
2017-07-30T07:26:51.747Z,40.20
2017-07-30T07:29:20.032Z,40.00
2017-07-30T07:31:48.290Z,42.30
2017-07-30T07:34:16.596Z,41.00
2017-07-30T07:36:44.879Z,39.40
2017-07-30T07:39:13.164Z,39.20
2017-07-30T07:41:42.231Z,41.00
2017-07-30T07:44:10.516Z,40.90
2017-07-30T07:46:39.813Z,40.60
2017-07-30T07:49:08.094Z,41.00
2017-07-30T07:51:36.362Z,41.60
2017-07-30T07:54:04.651Z,40.00
2017-07-30T07:56:32.902Z,40.60
2017-07-30T07:59:01.204Z,38.40
2017-07-30T08:01:29.487Z,38.30
2017-07-30T08:03:58.572Z,37.80
2017-07-30T08:06:26.814Z,37.80
2017-07-30T08:08:55.608Z,38.30
2017-07-30T08:11:23.892Z,39.00
2017-07-30T08:13:52.146Z,38.30
2017-07-30T08:16:20.432Z,38.60
2017-07-30T08:18:48.692Z,39.00
2017-07-30T08:21:16.985Z,40.30
2017-07-30T08:23:45.236Z,38.50
2017-07-30T08:26:13.520Z,39.20
2017-07-30T08:28:43.239Z,38.30
2017-07-30T08:31:11.515Z,38.30
2017-07-30T08:33:40.029Z,39.10
2017-07-30T08:36:08.312Z,39.90
2017-07-30T08:38:37.339Z,37.80
2017-07-30T08:41:05.639Z,37.70
2017-07-30T08:43:33.895Z,37.10
2017-07-30T08:46:02.183Z,38.10
2017-07-30T08:48:30.435Z,38.30
2017-07-30T08:50:59.654Z,37.20
2017-07-30T08:53:27.908Z,39.20
2017-07-30T08:55:56.164Z,37.10
2017-07-30T08:58:25.214Z,38.90
2017-07-30T09:00:54.472Z,38.80
2017-07-30T09:03:22.769Z,39.50
2017-07-30T09:05:52.007Z,38.10
2017-07-30T09:08:20.292Z,37.70
2017-07-30T09:10:49.311Z,38.90
2017-07-30T09:13:17.603Z,38.70
2017-07-30T09:15:45.863Z,38.90
2017-07-30T09:18:14.220Z,38.80
2017-07-30T09:20:44.239Z,39.00
2017-07-30T09:23:13.336Z,37.70
2017-07-30T09:25:41.609Z,37.70
2017-07-30T09:28:09.912Z,40.20
2017-07-30T09:30:38.167Z,40.50
2017-07-30T09:33:06.439Z,41.10
2017-07-30T09:35:34.736Z,37.90
2017-07-30T09:38:03.032Z,38.60
2017-07-30T09:40:31.315Z,38.50
2017-07-30T09:42:59.590Z,39.00
2017-07-30T09:45:27.883Z,39.60
2017-07-30T09:47:56.162Z,39.00
2017-07-30T09:50:24.421Z,39.90
2017-07-30T09:52:52.752Z,42.00
2017-07-30T09:55:21.011Z,40.70
2017-07-30T09:57:50.293Z,41.20
2017-07-30T10:00:19.351Z,42.60
2017-07-30T10:02:47.608Z,41.90
2017-07-30T10:05:15.890Z,41.30
2017-07-30T10:07:44.160Z,40.50
2017-07-30T10:10:12.789Z,39.90
2017-07-30T10:12:41.044Z,40.10
2017-07-30T10:15:10.236Z,40.30
2017-07-30T10:17:38.534Z,40.70
2017-07-30T10:20:06.845Z,41.90
2017-07-30T10:22:35.095Z,40.50
2017-07-30T10:25:04.263Z,40.00
2017-07-30T10:27:32.533Z,40.00
2017-07-30T10:30:00.807Z,39.60
2017-07-30T10:32:29.068Z,40.00
2017-07-30T10:34:57.355Z,40.80
2017-07-30T10:37:25.620Z,40.20
2017-07-30T10:39:53.924Z,37.50
2017-07-30T10:42:22.174Z,38.40
2017-07-30T10:44:50.432Z,39.80
2017-07-30T10:47:18.719Z,40.20
2017-07-30T10:49:47.012Z,40.30
2017-07-30T10:52:16.913Z,40.50
2017-07-30T10:54:45.200Z,40.00
2017-07-30T10:57:13.460Z,39.30
2017-07-30T10:59:41.743Z,39.90
2017-07-30T11:02:09.998Z,39.70
2017-07-30T11:04:38.412Z,40.00
2017-07-30T11:07:06.662Z,41.20
2017-07-30T11:09:34.924Z,43.20
2017-07-30T11:12:03.202Z,40.90
2017-07-30T11:14:32.045Z,41.90
2017-07-30T11:17:01.263Z,43.10
2017-07-30T11:19:30.307Z,41.30
2017-07-30T11:21:58.592Z,41.30
2017-07-30T11:24:27.706Z,43.30
2017-07-30T11:26:55.994Z,43.00
2017-07-30T11:29:24.243Z,42.90
2017-07-30T11:31:52.536Z,44.30
2017-07-30T11:34:20.825Z,43.30
2017-07-30T11:36:49.290Z,41.80
2017-07-30T11:39:18.591Z,45.00
2017-07-30T11:41:47.072Z,45.00
2017-07-30T11:44:15.329Z,42.00
2017-07-30T11:46:43.671Z,43.00
2017-07-30T11:49:11.987Z,43.80
2017-07-30T11:51:40.305Z,42.70
2017-07-30T11:54:09.343Z,45.80
2017-07-30T11:56:37.662Z,45.80
2017-07-30T11:59:05.952Z,43.40
2017-07-30T12:01:34.999Z,44.80
2017-07-30T12:04:03.258Z,44.80
2017-07-30T12:06:31.784Z,43.70
2017-07-30T12:09:00.051Z,41.60
2017-07-30T12:11:28.347Z,42.70
2017-07-30T12:13:57.404Z,44.70
2017-07-30T12:16:25.687Z,44.70
2017-07-30T12:18:53.939Z,44.30
2017-07-30T12:21:22.234Z,44.90
2017-07-30T12:23:50.492Z,45.10
2017-07-30T12:26:18.784Z,45.70
2017-07-30T12:28:47.047Z,45.40
2017-07-30T12:31:15.334Z,47.60
2017-07-30T12:33:43.588Z,47.10
2017-07-30T12:36:11.897Z,46.10
2017-07-30T12:38:40.139Z,46.20
2017-07-30T12:41:08.407Z,47.20
2017-07-30T12:43:36.696Z,46.80
2017-07-30T12:46:05.000Z,47.10
2017-07-30T12:48:33.274Z,46.70
2017-07-30T12:51:01.529Z,47.50
2017-07-30T12:53:29.828Z,47.70
2017-07-30T12:55:58.087Z,48.40
2017-07-30T12:58:26.376Z,48.30
2017-07-30T13:00:54.668Z,48.30
2017-07-30T13:03:23.155Z,47.10
2017-07-30T13:05:51.468Z,48.40
2017-07-30T13:08:19.729Z,49.60
2017-07-30T13:10:48.747Z,49.00
2017-07-30T13:13:17.036Z,49.10
2017-07-30T13:15:45.329Z,48.70
2017-07-30T13:18:13.588Z,48.40
2017-07-30T13:20:41.872Z,47.20
2017-07-30T13:23:10.156Z,47.70
2017-07-30T13:25:38.439Z,46.60
2017-07-30T13:28:06.740Z,47.70
2017-07-30T13:30:35.019Z,48.50
2017-07-30T13:33:03.277Z,49.00
2017-07-30T13:35:31.560Z,50.20
2017-07-30T13:37:59.851Z,51.10
2017-07-30T13:40:28.885Z,51.80
2017-07-30T13:42:57.183Z,51.80
2017-07-30T13:45:25.435Z,48.00
2017-07-30T13:47:53.691Z,49.30
2017-07-30T13:50:21.983Z,46.10
2017-07-30T13:52:51.225Z,47.60
2017-07-30T13:55:20.347Z,45.90
2017-07-30T13:57:49.407Z,44.20
2017-07-30T14:00:17.663Z,44.20
2017-07-30T14:02:45.955Z,46.10
2017-07-30T14:05:14.243Z,47.40
2017-07-30T14:07:42.536Z,48.10
2017-07-30T14:10:10.856Z,49.70
2017-07-30T14:12:39.111Z,50.00
2017-07-30T14:15:08.132Z,49.60
2017-07-30T14:17:36.420Z,49.60
2017-07-30T14:20:04.671Z,49.40
2017-07-30T14:22:32.969Z,49.40
2017-07-30T14:25:01.214Z,50.70
2017-07-30T14:27:29.502Z,51.90
2017-07-30T14:29:57.759Z,51.00
2017-07-30T14:32:26.068Z,51.70
2017-07-30T14:34:54.605Z,52.80
2017-07-30T14:37:22.855Z,53.00
2017-07-30T14:39:51.139Z,53.50
2017-07-30T14:42:19.504Z,55.00
2017-07-30T14:44:47.785Z,54.10
2017-07-30T14:47:16.160Z,54.20
2017-07-30T14:49:45.466Z,53.90
2017-07-30T14:52:13.751Z,54.50
2017-07-30T14:54:42.003Z,55.80
2017-07-30T14:57:10.288Z,56.50
2017-07-30T14:59:38.573Z,57.40
2017-07-30T15:02:06.832Z,57.40
2017-07-30T15:04:35.116Z,57.70
2017-07-30T15:07:03.404Z,58.60
2017-07-30T15:09:31.663Z,58.10
2017-07-30T15:11:59.963Z,58.80
2017-07-30T15:14:29.364Z,57.80
2017-07-30T15:16:57.672Z,58.50
2017-07-30T15:19:25.955Z,57.10
2017-07-30T15:21:54.261Z,57.30
2017-07-30T15:24:22.516Z,56.20
2017-07-30T15:26:50.796Z,56.10
2017-07-30T15:29:19.070Z,56.00
2017-07-30T15:31:47.356Z,54.40
2017-07-30T15:34:15.610Z,54.70
2017-07-30T15:36:43.919Z,54.80
2017-07-30T15:39:12.174Z,55.70
2017-07-30T15:41:40.431Z,53.50
2017-07-30T15:44:08.711Z,53.40
2017-07-30T15:46:36.958Z,54.70
2017-07-30T15:49:05.979Z,54.90
2017-07-30T15:51:34.283Z,54.90
2017-07-30T15:54:03.411Z,54.50
2017-07-30T15:56:31.676Z,54.20
2017-07-30T15:58:59.970Z,56.20
2017-07-30T16:01:29.003Z,56.30
2017-07-30T16:03:57.373Z,56.20
2017-07-30T16:06:25.624Z,55.80
2017-07-30T16:08:54.675Z,56.10
2017-07-30T16:11:23.047Z,56.10
2017-07-30T16:13:51.332Z,57.10
2017-07-30T16:16:19.731Z,54.90
2017-07-30T16:18:47.991Z,56.40
2017-07-30T16:21:16.243Z,56.50
2017-07-30T16:23:44.584Z,56.90
2017-07-30T16:26:13.731Z,57.60
2017-07-30T16:28:41.988Z,57.50
2017-07-30T16:31:11.169Z,58.60
2017-07-30T16:33:40.218Z,58.20
2017-07-30T16:36:08.474Z,58.20
2017-07-30T16:41:11.360Z,58.50
2017-07-30T16:43:39.620Z,58.10
2017-07-30T16:46:07.931Z,58.10
2017-07-30T16:48:36.186Z,56.30
2017-07-30T16:51:04.479Z,56.90
2017-07-30T16:53:32.743Z,57.30
2017-07-30T16:56:01.112Z,58.70
2017-07-30T16:58:29.404Z,56.50
2017-07-30T17:00:57.682Z,56.90
2017-07-30T17:03:25.992Z,57.20
2017-07-30T17:05:54.374Z,58.00
2017-07-30T17:08:22.626Z,57.80
2017-07-30T17:10:51.664Z,57.40
2017-07-30T17:13:19.967Z,57.30
2017-07-30T17:15:48.294Z,57.10
2017-07-30T17:18:17.344Z,57.40
2017-07-30T17:20:45.603Z,57.40
2017-07-30T17:23:14.123Z,57.50
2017-07-30T17:25:42.380Z,57.50
2017-07-30T17:28:11.467Z,58.30
2017-07-30T17:30:39.891Z,58.30
2017-07-30T17:33:09.001Z,59.10
2017-07-30T17:35:38.288Z,59.10
2017-07-30T17:38:07.349Z,59.40
2017-07-30T17:40:36.263Z,59.30
2017-07-30T17:43:05.308Z,59.50
2017-07-30T17:45:33.590Z,59.50
2017-07-30T17:48:02.818Z,60.00
2017-07-30T17:50:31.066Z,59.90
2017-07-30T17:52:59.359Z,60.10
2017-07-30T17:55:27.615Z,60.20
2017-07-30T17:57:55.922Z,60.50
2017-07-30T18:00:24.181Z,61.20
2017-07-30T18:02:52.451Z,62.30
2017-07-30T18:05:21.670Z,61.00
2017-07-30T18:07:49.939Z,61.80
2017-07-30T18:10:18.248Z,62.50
2017-07-30T18:12:46.528Z,62.90
2017-07-30T18:15:14.788Z,62.60
2017-07-30T18:17:43.839Z,62.50
2017-07-30T18:20:12.102Z,62.50
2017-07-30T18:22:41.000Z,62.80
2017-07-30T18:25:09.263Z,62.90
2017-07-30T18:27:37.555Z,64.90
2017-07-30T18:30:06.162Z,66.10
2017-07-30T18:32:34.523Z,65.90
2017-07-30T18:35:02.779Z,64.70
2017-07-30T18:37:31.059Z,66.10
2017-07-30T18:39:59.360Z,64.40
2017-07-30T18:42:27.632Z,64.60
2017-07-30T18:44:56.667Z,64.40
2017-07-30T18:47:25.124Z,64.90
2017-07-30T18:49:53.380Z,63.50
2017-07-30T18:52:21.655Z,62.20
2017-07-30T18:54:49.923Z,66.10
2017-07-30T18:57:18.207Z,68.50
2017-07-30T18:59:46.461Z,72.30
2017-07-30T19:02:14.822Z,72.60
2017-07-30T19:04:43.130Z,72.70
2017-07-30T19:07:11.507Z,72.10
2017-07-30T19:09:39.771Z,71.00
2017-07-30T19:12:08.956Z,73.20
2017-07-30T19:14:37.587Z,72.90
2017-07-30T19:17:05.872Z,75.60
2017-07-30T19:19:34.161Z,73.40
2017-07-30T19:22:03.203Z,76.50
2017-07-30T19:24:31.492Z,76.50
2017-07-30T19:26:59.752Z,78.10
2017-07-30T19:29:28.153Z,78.90
2017-07-30T19:31:56.408Z,79.00
2017-07-30T19:34:25.538Z,79.40
2017-07-30T19:36:53.909Z,80.30
2017-07-30T19:39:22.150Z,80.80
2017-07-30T19:41:50.439Z,81.10
2017-07-30T19:44:18.700Z,81.60
2017-07-30T19:46:46.982Z,81.70
2017-07-30T19:49:15.231Z,81.70
2017-07-30T19:51:43.518Z,81.70
2017-07-30T19:54:11.774Z,83.20
2017-07-30T19:56:40.083Z,83.70
2017-07-30T19:59:08.339Z,84.00
2017-07-30T20:01:36.658Z,85.00
2017-07-30T20:04:04.954Z,85.00
2017-07-30T20:06:33.206Z,84.60
2017-07-30T20:09:01.482Z,84.60
2017-07-30T20:11:29.876Z,85.10
2017-07-30T20:13:58.172Z,84.80
2017-07-30T20:16:27.194Z,84.70
2017-07-30T20:18:55.452Z,84.70
2017-07-30T20:21:24.598Z,84.20
2017-07-30T20:23:52.934Z,84.20
2017-07-30T20:26:21.254Z,84.30
2017-07-30T20:28:49.598Z,83.90
2017-07-30T20:31:17.875Z,83.50
2017-07-30T20:33:46.202Z,83.10
2017-07-30T20:36:14.471Z,83.80
2017-07-30T20:38:42.782Z,84.00
2017-07-30T20:41:11.806Z,84.20
2017-07-30T20:43:40.063Z,84.20
2017-07-30T20:46:08.349Z,84.60
2017-07-30T20:48:36.638Z,84.90
2017-07-30T20:51:04.926Z,84.90
2017-07-30T20:53:33.254Z,84.90
2017-07-30T20:56:02.285Z,85.40
2017-07-30T20:58:30.607Z,85.30
2017-07-30T21:00:58.898Z,85.60
2017-07-30T21:03:27.183Z,86.30
2017-07-30T21:05:56.234Z,86.20
2017-07-30T21:08:24.610Z,86.10
2017-07-30T21:10:52.862Z,86.10
2017-07-30T21:13:21.111Z,85.80
2017-07-30T21:15:50.259Z,84.30
2017-07-30T21:18:18.552Z,84.30
2017-07-30T21:20:47.142Z,84.10
2017-07-30T21:23:15.494Z,84.10
2017-07-30T21:25:43.775Z,84.00
2017-07-30T21:28:12.087Z,84.10
2017-07-30T21:30:41.166Z,83.80
2017-07-30T21:33:09.410Z,83.70
2017-07-30T21:35:37.707Z,83.30
2017-07-30T21:38:05.996Z,83.40
2017-07-30T21:40:34.285Z,83.30
2017-07-30T21:43:02.522Z,83.50
2017-07-30T21:45:30.838Z,83.70
2017-07-30T21:48:00.880Z,83.90
2017-07-30T21:50:29.162Z,83.80
2017-07-30T21:52:57.414Z,83.40
2017-07-30T21:55:26.566Z,84.30
2017-07-30T21:57:54.809Z,84.30
2017-07-30T22:00:23.123Z,84.00
2017-07-30T22:02:52.618Z,84.10
2017-07-30T22:05:20.915Z,84.30
2017-07-30T22:07:49.275Z,84.00
2017-07-30T22:10:17.559Z,84.00
2017-07-30T22:12:45.815Z,84.30
2017-07-30T22:15:14.189Z,84.50
2017-07-30T22:17:43.203Z,84.90
2017-07-30T22:20:11.556Z,85.20
2017-07-30T22:22:39.814Z,85.10
2017-07-30T22:25:08.098Z,85.30
2017-07-30T22:27:36.354Z,85.70
2017-07-30T22:30:04.720Z,85.80
2017-07-30T22:32:32.982Z,86.00
2017-07-30T22:35:01.291Z,86.40
2017-07-30T22:37:29.547Z,86.90
2017-07-30T22:39:58.598Z,88.20
2017-07-30T22:42:26.886Z,87.40
2017-07-30T22:44:55.142Z,87.50
